Deerfield Beach, FL (33441)

7:28 AM EDT on August 24, 2016 (GMT -0400)
Shorewood ,DEERFIELD Beach,Fl | | Change Station

Elev 20 ft 26.30 °N, 80.10 °W | Updated 28 seconds ago

Light Rain
Light Rain
77.8 °F
Feels Like 80 °F
N
0.0
Wind Variable Wind from WSW

Today
High -- | Low -- °F
--% Chance of Precip.
Yesterday
High -- | Low -- °F
Precip. -- in
Pressure 30.06 in
Visibility 10.0 miles
Clouds Few 4800 ft
Few 8000 ft
Few 12000 ft
Heat Index 80 °F
Dew Point 74 °F
Humidity 88%
Rainfall 0.14 in
Snow Depth Not available.
6:57 AM 7:47 PM
Waning Gibbous, 58% visible
METAR KPMP 241053Z 03007KT 10SM -RA FEW048 FEW080 FEW120 25/22 A3005 RMK AO2 LTG DSNT N AND NE RAB00 TSE32 SLP178 P0009 T02500222
Pressure 30.06 in
Visibility 10.0 miles
Clouds Few 4800 ft
Few 8000 ft
Few 12000 ft
Heat Index 80 °F
Dew Point 74 °F
Humidity 88%
Rainfall 0.14 in
Snow Depth Not available.
6:57 AM 7:47 PM
Waning Gibbous, 58% visible
METAR KPMP 241053Z 03007KT 10SM -RA FEW048 FEW080 FEW120 25/22 A3005 RMK AO2 LTG DSNT N AND NE RAB00 TSE32 SLP178 P0009 T02500222

10-Day Weather Forecast

Almanac

Astronomy

Aug. 24, 2016 Rise Set
Actual Time
Civil Twilight
Nautical Twilight
Astronomical Twilight
Moon
Length of Visible Light
Length of Day
Tomorrow will be .
, % of the Moon is Illuminated

Today's Extremes

State Highs State Lows

Community

WunderPhotos

Upload Photos

1,934,565 photos uploaded!

WunderBlog® & News

Nearby

Air Quality

  Air Quality AQ Index Pollutant
Not available.

Snow Depth

Station Depth Elevation

Earthquake Activity

City Distance Mag. Time & Date
Minimum magnitude displayed is 2.5.

Coastal Water Temperatures

Place Temperature

Stations

Nearby Weather Stations

Station Location Temp. Windchill Dew Point Humidity Wind Precip. Elev Updated Type
                   

Watches & Warnings

There are currently no watches in effect.